Startpagina
METAR-TAF:

METAR-TAF

Vliegvelden :

San Fernando, Argentinië

breedte: 34-27-11S, lengte: 058-35-23W, hoogte: 3 m

Actueel weer

Dit bericht is 14 minuten geleden gemaakt, om 23:00 UTC
Wind 4 kt uit het noordwesten
Temperatuur 22°C
Vochtigheid 65%
Druk 1013 hPa
Zicht 10 km of meer
geen wolken onder 1500 m en geen cumulonimbus

METAR: SADF 232300Z 32004KT CAVOK 22/15 Q1013

Tijdstip: 20:14 (23:14 UTC)

Verwachting

Dit bericht is 6 uur en het 14 minuten geleden gemaakt, om 17:00 UTC
Verwachting geldig van 23 om 18 UTC tot 24 om 18 UTC
Wind 10 kt uit het noorden
Zicht 10 km of meer
Weinig wolken op 3000 ft
Wijzigt naar
van 23 om 20 UTC tot 23 om 22 UTC
Wind 10 kt uit het oostnoordoosten
Zicht 10 km of meer
geen wolken onder 1500 m en geen cumulonimbus
Wijzigt naar
van 24 om 13 UTC tot 24 om 15 UTC
Wind 15 kt uit het noordnoordwesten

TAF: SADF 231700Z 2318/2418 36010KT 9999 FEW030 TX30/2418Z TN17/2409Z BECMG 2320/2322 07010KT CAVOK BECMG 2413/2415 34015KT

Waarnemingen en weersverwachtingen van meer dan 4000 vliegvelden (METAR en TAF).

De beschikbare stations zijn de gele en rode punten op de kaart.

Ga met uw muis naar het station om de naam te zien.

Klik dan om waarnemingen en weersverwachtingen te zien.

kaart wijzigen: klik op de groene knoppen met een zwart kruis om in te zoomen, op de groene knop met een streepje om uit te zoomen of op de groene pijlen voor aangrenzende kaarten.


METAR-TAF: